createdAt,value
2023-03-21T00:00:33.446Z,0.00
2023-03-21T00:01:33.424Z,0.00
2023-03-21T00:02:33.548Z,0.00
2023-03-21T00:03:33.510Z,0.00
2023-03-21T00:04:48.579Z,0.00
2023-03-21T00:05:34.484Z,0.00
2023-03-21T00:06:33.359Z,0.00
2023-03-21T00:07:33.345Z,0.00
2023-03-21T00:08:33.337Z,0.00
2023-03-21T00:09:33.323Z,0.00
2023-03-21T00:10:41.678Z,0.00
2023-03-21T00:11:34.321Z,0.00
2023-03-21T00:12:33.284Z,0.00
2023-03-21T00:13:33.268Z,0.00
2023-03-21T00:14:33.256Z,0.00
2023-03-21T00:15:44.135Z,0.00
2023-03-21T00:16:39.841Z,0.00
2023-03-21T00:17:34.246Z,0.00
2023-03-21T00:18:33.214Z,0.00
2023-03-21T00:19:33.183Z,0.00
2023-03-21T00:20:33.192Z,0.00
2023-03-21T00:21:46.588Z,0.00
2023-03-21T00:22:34.169Z,0.00
2023-03-21T00:23:33.131Z,0.00
2023-03-21T00:24:33.119Z,0.00
2023-03-21T00:25:33.114Z,0.00
2023-03-21T00:26:33.097Z,0.00
2023-03-21T00:27:53.266Z,0.00
2023-03-21T00:28:34.097Z,0.00
2023-03-21T00:29:33.055Z,0.00
2023-03-21T00:30:33.041Z,0.00
2023-03-21T00:31:33.277Z,0.00
2023-03-21T00:32:35.655Z,0.00
2023-03-21T00:33:34.021Z,0.00
2023-03-21T00:34:43.379Z,0.00
2023-03-21T00:35:57.792Z,0.00
2023-03-21T00:36:34.038Z,0.00
2023-03-21T00:37:32.954Z,0.00
2023-03-21T00:38:32.951Z,0.00
2023-03-21T00:39:32.918Z,0.00
2023-03-21T00:40:35.353Z,0.00
2023-03-21T00:41:43.189Z,0.00
2023-03-21T00:42:33.908Z,0.00
2023-03-21T00:43:32.865Z,0.00
2023-03-21T00:44:32.862Z,0.00
2023-03-21T00:45:32.856Z,0.00
2023-03-21T00:46:42.745Z,0.00
2023-03-21T00:47:33.889Z,0.00
2023-03-21T00:48:32.802Z,0.00
2023-03-21T00:49:32.791Z,0.00
2023-03-21T00:50:32.777Z,0.00
2023-03-21T00:51:32.755Z,0.00
2023-03-21T00:52:40.522Z,0.00
2023-03-21T00:53:33.769Z,0.00
2023-03-21T00:54:32.716Z,0.00
2023-03-21T00:55:32.707Z,0.00
2023-03-21T00:56:32.709Z,0.00
2023-03-21T00:57:39.036Z,0.00
2023-03-21T00:58:33.701Z,0.00
2023-03-21T00:59:32.659Z,0.00
2023-03-21T01:00:32.661Z,0.00
2023-03-21T01:01:32.840Z,0.00
2023-03-21T01:02:32.609Z,0.00
2023-03-21T01:03:32.599Z,0.00
2023-03-21T01:04:32.594Z,0.00
2023-03-21T01:05:32.575Z,0.00
2023-03-21T01:06:32.571Z,0.00
2023-03-21T01:07:32.554Z,0.00
2023-03-21T01:08:44.541Z,0.00
2023-03-21T01:09:33.550Z,0.00
2023-03-21T01:10:32.512Z,0.00
2023-03-21T01:11:32.513Z,0.00
2023-03-21T01:12:32.483Z,0.00
2023-03-21T01:13:34.585Z,0.00
2023-03-21T01:14:32.453Z,0.00
2023-03-21T01:15:32.435Z,0.00
2023-03-21T01:16:32.628Z,0.00
2023-03-21T01:17:32.407Z,0.00
2023-03-21T01:18:32.398Z,0.00
2023-03-21T01:19:48.690Z,0.00
2023-03-21T01:20:33.396Z,0.00
2023-03-21T01:21:32.363Z,0.00
2023-03-21T01:22:32.349Z,0.00
2023-03-21T01:23:32.333Z,0.00
2023-03-21T01:24:33.853Z,0.00
2023-03-21T01:25:32.311Z,0.00
2023-03-21T01:26:32.304Z,0.00
2023-03-21T01:27:32.283Z,0.00
2023-03-21T01:28:32.266Z,0.00
2023-03-21T01:29:32.260Z,0.00
2023-03-21T01:30:37.057Z,0.00
2023-03-21T01:31:33.300Z,0.00
2023-03-21T01:32:32.218Z,0.00
2023-03-21T01:33:32.204Z,0.00
2023-03-21T01:34:32.194Z,0.00
2023-03-21T01:35:40.919Z,0.00
2023-03-21T01:36:33.271Z,0.00
2023-03-21T01:37:32.142Z,0.00
2023-03-21T01:38:32.136Z,0.00
2023-03-21T01:39:32.115Z,0.00
2023-03-21T01:40:32.130Z,0.00
2023-03-21T01:41:45.074Z,0.00
2023-03-21T01:42:33.107Z,0.00
2023-03-21T01:43:32.061Z,0.00
2023-03-21T01:44:32.058Z,0.00
2023-03-21T01:45:32.108Z,0.00
2023-03-21T01:46:37.251Z,0.00
2023-03-21T01:47:33.043Z,0.00
2023-03-21T01:48:32.002Z,0.00
2023-03-21T01:49:31.987Z,0.00
2023-03-21T01:50:31.975Z,0.00
2023-03-21T01:51:31.962Z,0.00
2023-03-21T01:52:39.241Z,0.00
2023-03-21T01:53:32.955Z,0.00
2023-03-21T01:54:31.914Z,0.00
2023-03-21T01:55:32.002Z,0.00
2023-03-21T01:56:31.909Z,0.00
2023-03-21T01:57:40.371Z,0.00
2023-03-21T01:58:32.973Z,0.00
2023-03-21T01:59:31.849Z,0.00
2023-03-21T02:00:31.854Z,0.00
2023-03-21T02:01:31.827Z,0.00
2023-03-21T02:02:32.166Z,0.00
2023-03-21T02:03:36.163Z,0.00
2023-03-21T02:04:31.788Z,0.00
2023-03-21T02:05:31.771Z,0.00
2023-03-21T02:06:31.878Z,0.00
2023-03-21T02:07:31.749Z,0.00
2023-03-21T02:08:39.308Z,0.00
2023-03-21T02:09:32.736Z,0.00
2023-03-21T02:10:31.704Z,0.00
2023-03-21T02:11:31.690Z,0.00
2023-03-21T02:12:31.704Z,0.00
2023-03-21T02:13:31.921Z,0.00
2023-03-21T02:14:31.649Z,0.00
2023-03-21T02:15:31.785Z,0.00
2023-03-21T02:16:31.679Z,0.00
2023-03-21T02:17:31.663Z,0.00
2023-03-21T02:18:31.949Z,0.00
2023-03-21T02:19:37.212Z,0.00
2023-03-21T02:20:32.598Z,0.00
2023-03-21T02:21:31.765Z,0.00
2023-03-21T02:22:31.699Z,0.00
2023-03-21T02:23:31.531Z,0.00
2023-03-21T02:24:31.520Z,0.00
2023-03-21T02:25:31.500Z,0.00
2023-03-21T02:26:41.178Z,0.00
2023-03-21T02:27:32.502Z,0.00
2023-03-21T02:28:31.502Z,0.00
2023-03-21T02:29:31.448Z,0.00
2023-03-21T02:30:37.453Z,0.00
2023-03-21T02:31:32.529Z,0.00
2023-03-21T02:32:37.465Z,0.00
2023-03-21T02:33:32.437Z,0.00
2023-03-21T02:34:31.438Z,0.00
2023-03-21T02:35:32.255Z,0.00
2023-03-21T02:36:31.452Z,0.00
2023-03-21T02:37:37.697Z,0.00
2023-03-21T02:38:32.350Z,0.00
2023-03-21T02:39:31.325Z,0.00
2023-03-21T02:40:31.313Z,0.00
2023-03-21T02:41:38.239Z,0.00
2023-03-21T02:42:32.308Z,0.00
2023-03-21T02:43:31.291Z,0.00
2023-03-21T02:44:31.285Z,0.00
2023-03-21T02:45:31.270Z,0.00
2023-03-21T02:46:41.780Z,0.00
2023-03-21T02:47:32.244Z,0.00
2023-03-21T02:48:44.541Z,0.00
2023-03-21T02:49:32.205Z,0.00
2023-03-21T02:50:31.169Z,0.00
2023-03-21T02:51:31.156Z,0.00
2023-03-21T02:52:38.755Z,0.00
2023-03-21T02:53:32.162Z,0.00
2023-03-21T02:54:47.061Z,0.00
2023-03-21T02:55:32.159Z,0.00
2023-03-21T02:56:31.098Z,0.00
2023-03-21T02:57:41.852Z,0.00
2023-03-21T02:58:32.104Z,0.00
2023-03-21T02:59:31.285Z,0.00
2023-03-21T03:00:31.090Z,0.00
2023-03-21T03:01:31.063Z,0.00
2023-03-21T03:02:31.021Z,0.00
2023-03-21T03:03:34.693Z,0.00
2023-03-21T03:04:31.127Z,0.00
2023-03-21T03:05:30.976Z,0.00
2023-03-21T03:06:30.966Z,0.00
2023-03-21T03:07:30.946Z,0.00
2023-03-21T03:08:41.282Z,0.00
2023-03-21T03:09:31.954Z,0.00
2023-03-21T03:10:30.914Z,0.00
2023-03-21T03:11:31.199Z,0.00
2023-03-21T03:12:30.881Z,0.00
2023-03-21T03:13:30.871Z,0.00
2023-03-21T03:14:53.080Z,0.00
2023-03-21T03:15:31.922Z,0.00
2023-03-21T03:16:30.851Z,0.00
2023-03-21T03:17:30.820Z,0.00
2023-03-21T03:18:30.808Z,0.00
2023-03-21T03:19:34.463Z,0.00
2023-03-21T03:20:30.778Z,0.00
2023-03-21T03:21:30.761Z,0.00
2023-03-21T03:22:30.750Z,0.00
2023-03-21T03:23:30.772Z,0.00
2023-03-21T03:24:30.725Z,0.00
2023-03-21T03:25:42.104Z,0.00
2023-03-21T03:26:31.871Z,0.00
2023-03-21T03:27:30.681Z,0.00
2023-03-21T03:28:30.665Z,0.00
2023-03-21T03:29:30.655Z,0.00
2023-03-21T03:30:41.305Z,0.00
2023-03-21T03:31:31.732Z,0.00
2023-03-21T03:32:30.637Z,0.00
2023-03-21T03:33:30.596Z,0.00
2023-03-21T03:34:30.583Z,0.00
2023-03-21T03:35:30.693Z,0.00
2023-03-21T03:36:32.836Z,0.00
2023-03-21T03:37:30.547Z,0.00
2023-03-21T03:38:30.535Z,0.00
2023-03-21T03:39:30.516Z,0.00
2023-03-21T03:40:30.510Z,0.00
2023-03-21T03:41:50.301Z,0.00
2023-03-21T03:42:31.505Z,0.00
2023-03-21T03:43:30.466Z,0.00
2023-03-21T03:44:30.447Z,0.00
2023-03-21T03:45:30.433Z,0.00
2023-03-21T03:46:30.446Z,0.00
2023-03-21T03:47:34.952Z,0.00
2023-03-21T03:48:31.523Z,0.00
2023-03-21T03:49:30.382Z,0.00
2023-03-21T03:50:30.375Z,0.00
2023-03-21T03:51:30.358Z,0.00
2023-03-21T03:52:30.371Z,0.00
2023-03-21T03:53:30.331Z,0.00
2023-03-21T03:54:30.322Z,0.00
2023-03-21T03:55:30.307Z,0.00
2023-03-21T03:56:30.295Z,0.00
2023-03-21T03:57:30.276Z,0.00
2023-03-21T03:58:39.767Z,0.00
2023-03-21T03:59:31.378Z,0.00
2023-03-21T04:00:30.243Z,0.00
2023-03-21T04:01:30.349Z,0.00
2023-03-21T04:02:30.359Z,0.00
2023-03-21T04:03:39.231Z,0.00
2023-03-21T04:04:31.251Z,0.00
2023-03-21T04:05:30.169Z,0.00
2023-03-21T04:06:30.157Z,0.00
2023-03-21T04:07:30.145Z,0.00
2023-03-21T04:08:30.150Z,0.00
2023-03-21T04:09:43.215Z,0.00
2023-03-21T04:10:31.132Z,0.00
2023-03-21T04:11:30.097Z,0.00
2023-03-21T04:12:30.097Z,0.00
2023-03-21T04:13:30.090Z,0.00
2023-03-21T04:14:42.018Z,0.00
2023-03-21T04:15:31.072Z,0.00
2023-03-21T04:16:30.071Z,0.00
2023-03-21T04:17:30.013Z,0.00
2023-03-21T04:18:29.998Z,0.00
2023-03-21T04:19:29.988Z,0.00
2023-03-21T04:20:36.855Z,0.00
2023-03-21T04:21:31.002Z,0.00
2023-03-21T04:22:29.946Z,0.00
2023-03-21T04:23:29.939Z,0.00
2023-03-21T04:24:29.924Z,0.00
2023-03-21T04:25:33.829Z,0.00
2023-03-21T04:26:29.894Z,0.00
2023-03-21T04:27:29.886Z,0.00
2023-03-21T04:28:29.879Z,0.00
2023-03-21T04:29:30.010Z,0.00
2023-03-21T04:30:29.844Z,0.00
2023-03-21T04:31:29.882Z,0.00
2023-03-21T04:32:29.821Z,0.00
2023-03-21T04:33:29.803Z,0.00
2023-03-21T04:34:29.785Z,0.00
2023-03-21T04:35:29.788Z,0.00
2023-03-21T04:36:29.783Z,0.00
2023-03-21T04:37:29.753Z,0.00
2023-03-21T04:38:29.736Z,0.00
2023-03-21T04:39:29.723Z,0.00
2023-03-21T04:40:29.710Z,0.00
2023-03-21T04:41:29.702Z,0.00
2023-03-21T04:42:29.682Z,0.00
2023-03-21T04:43:29.680Z,0.00
2023-03-21T04:44:29.652Z,0.00
2023-03-21T04:45:29.722Z,0.00
2023-03-21T04:46:29.623Z,0.00
2023-03-21T04:47:29.614Z,0.00
2023-03-21T04:48:29.600Z,0.00
2023-03-21T04:49:29.585Z,0.00
2023-03-21T04:50:29.571Z,0.00
2023-03-21T04:51:29.558Z,0.00
2023-03-21T04:52:29.564Z,0.00
2023-03-21T04:53:29.535Z,0.00
2023-03-21T04:54:29.528Z,0.00
2023-03-21T04:55:29.505Z,0.00
2023-03-21T04:56:29.484Z,4.00
2023-03-21T04:57:29.476Z,4.00
2023-03-21T04:58:29.461Z,0.00
2023-03-21T04:59:29.445Z,4.00
2023-03-21T05:00:29.429Z,0.00
2023-03-21T05:01:29.757Z,4.00
2023-03-21T05:02:29.405Z,4.00
2023-03-21T05:03:29.395Z,4.00
2023-03-21T05:04:29.380Z,8.00
2023-03-21T05:05:29.367Z,8.00
2023-03-21T05:06:29.351Z,8.00
2023-03-21T05:07:29.341Z,12.00
2023-03-21T05:08:29.349Z,12.00
2023-03-21T05:09:29.325Z,12.00
2023-03-21T05:10:29.308Z,16.00
2023-03-21T05:11:29.563Z,20.00
2023-03-21T05:12:29.294Z,24.00
2023-03-21T05:13:29.267Z,32.00
2023-03-21T05:14:29.240Z,36.00
2023-03-21T05:15:29.248Z,44.00
2023-03-21T05:16:29.336Z,52.00
2023-03-21T05:17:29.208Z,64.00
2023-03-21T05:18:29.189Z,72.00
2023-03-21T05:19:29.179Z,80.00
2023-03-21T05:20:29.161Z,92.00
2023-03-21T05:21:29.151Z,108.00
2023-03-21T05:22:29.166Z,120.00
2023-03-21T05:23:29.121Z,136.00
2023-03-21T05:24:29.158Z,152.00
2023-03-21T05:25:29.094Z,172.00
2023-03-21T05:26:29.080Z,188.00
2023-03-21T05:27:29.071Z,204.00
2023-03-21T05:28:29.052Z,228.00
2023-03-21T05:29:29.044Z,248.00
2023-03-21T05:30:29.035Z,272.00
2023-03-21T05:31:29.027Z,300.00
2023-03-21T05:32:29.001Z,324.00
2023-03-21T05:33:28.995Z,348.00
2023-03-21T05:34:28.978Z,376.00
2023-03-21T05:35:28.974Z,404.00
2023-03-21T05:36:28.945Z,436.00
2023-03-21T05:37:28.934Z,472.00
2023-03-21T05:38:28.922Z,496.00
2023-03-21T05:39:28.911Z,524.00
2023-03-21T05:40:28.922Z,556.00
2023-03-21T05:41:28.880Z,588.00
2023-03-21T05:42:28.866Z,616.00
2023-03-21T05:43:28.856Z,636.00
2023-03-21T05:44:28.843Z,660.00
2023-03-21T05:45:28.853Z,688.00
2023-03-21T05:46:28.840Z,712.00
2023-03-21T05:47:28.811Z,744.00
2023-03-21T05:48:28.795Z,780.00
2023-03-21T05:49:28.776Z,820.00
2023-03-21T05:50:28.808Z,864.00
2023-03-21T05:51:28.752Z,924.00
2023-03-21T05:52:28.738Z,984.00
2023-03-21T05:53:28.731Z,1060.00
2023-03-21T05:54:28.717Z,1136.00
2023-03-21T05:55:28.702Z,1212.00
2023-03-21T05:56:28.709Z,1252.00
2023-03-21T05:57:28.695Z,1276.00
2023-03-21T05:58:28.658Z,1312.00
2023-03-21T05:59:28.644Z,1396.00
2023-03-21T06:00:30.515Z,1512.00
2023-03-21T06:01:28.618Z,1636.00
2023-03-21T06:02:28.685Z,1736.00
2023-03-21T06:03:28.675Z,1836.00
2023-03-21T06:04:28.577Z,1936.00
2023-03-21T06:05:28.570Z,2016.00
2023-03-21T06:06:28.565Z,2068.00
2023-03-21T06:07:28.569Z,2108.00
2023-03-21T06:08:28.540Z,2156.00
2023-03-21T06:09:28.514Z,2204.00
2023-03-21T06:10:28.508Z,2280.00
2023-03-21T06:11:28.489Z,2344.00
2023-03-21T06:12:28.495Z,2440.00
2023-03-21T06:13:28.614Z,2572.00
2023-03-21T06:14:28.454Z,2696.00
2023-03-21T06:15:28.438Z,2812.00
2023-03-21T06:16:28.517Z,2976.00
2023-03-21T06:17:28.403Z,3192.00
2023-03-21T06:18:28.387Z,3412.00
2023-03-21T06:19:28.390Z,3792.00
2023-03-21T06:20:28.372Z,4364.00
2023-03-21T06:21:28.360Z,4756.00
2023-03-21T06:22:28.340Z,6504.00
2023-03-21T06:23:28.344Z,6856.00
2023-03-21T06:24:28.317Z,7324.00
2023-03-21T06:25:28.303Z,7552.00
2023-03-21T06:26:28.317Z,7580.00
2023-03-21T06:27:28.284Z,7588.00
2023-03-21T06:28:28.275Z,7724.00
2023-03-21T06:29:28.244Z,7840.00
2023-03-21T06:30:28.223Z,7760.00
2023-03-21T06:31:28.282Z,7752.00
2023-03-21T06:32:28.211Z,7648.00
2023-03-21T06:33:28.190Z,7304.00
2023-03-21T06:34:28.178Z,7016.00
2023-03-21T06:35:28.200Z,6924.00
2023-03-21T06:36:28.155Z,7216.00
2023-03-21T06:37:28.141Z,7072.00
2023-03-21T06:38:28.123Z,7028.00
2023-03-21T06:39:28.111Z,7092.00
2023-03-21T06:40:28.091Z,7072.00
2023-03-21T06:41:28.084Z,7364.00
2023-03-21T06:42:28.081Z,7200.00
2023-03-21T06:43:28.068Z,6176.00
2023-03-21T06:44:28.064Z,5976.00
2023-03-21T06:45:28.032Z,6552.00
2023-03-21T06:46:28.058Z,7868.00
2023-03-21T06:47:28.000Z,8904.00
2023-03-21T06:48:28.013Z,9268.00
2023-03-21T06:49:27.983Z,8872.00
2023-03-21T06:50:27.964Z,8304.00
2023-03-21T06:51:27.977Z,8976.00
2023-03-21T06:52:27.942Z,10256.00
2023-03-21T06:53:27.930Z,11000.00
2023-03-21T06:54:27.918Z,11008.00
2023-03-21T06:55:27.897Z,10904.00
2023-03-21T06:56:27.890Z,10440.00
2023-03-21T06:57:27.903Z,10360.00
2023-03-21T06:58:27.852Z,10232.00
2023-03-21T06:59:27.858Z,10664.00
2023-03-21T07:00:27.970Z,10784.00
2023-03-21T07:01:27.823Z,10684.00
2023-03-21T07:02:27.904Z,10592.00
2023-03-21T07:03:27.803Z,10976.00
2023-03-21T07:04:27.819Z,11172.00
2023-03-21T07:05:27.771Z,10884.00
2023-03-21T07:06:27.749Z,11304.00
2023-03-21T07:07:27.753Z,11744.00
2023-03-21T07:08:27.722Z,12360.00
2023-03-21T07:09:27.721Z,12768.00
2023-03-21T07:10:27.713Z,12464.00
2023-03-21T07:11:27.707Z,11956.00
2023-03-21T07:12:27.665Z,11636.00
2023-03-21T07:13:27.658Z,12472.00
2023-03-21T07:14:27.664Z,13600.00
2023-03-21T07:15:27.628Z,13856.00
2023-03-21T07:16:27.746Z,13632.00
2023-03-21T07:17:27.609Z,13568.00
2023-03-21T07:18:27.594Z,13728.00
2023-03-21T07:19:27.579Z,13600.00
2023-03-21T07:20:27.568Z,13888.00
2023-03-21T07:21:27.553Z,14336.00
2023-03-21T07:22:27.545Z,14240.00
2023-03-21T07:23:27.526Z,14432.00
2023-03-21T07:24:27.549Z,13920.00
2023-03-21T07:25:27.514Z,15328.00
2023-03-21T07:26:27.528Z,15840.00
2023-03-21T07:27:27.482Z,15360.00
2023-03-21T07:28:27.463Z,14784.00
2023-03-21T07:29:27.453Z,16256.00
2023-03-21T07:30:27.430Z,16384.00
2023-03-21T07:31:27.496Z,16032.00
2023-03-21T07:32:27.429Z,16032.00
2023-03-21T07:33:27.397Z,16224.00
2023-03-21T07:34:27.384Z,16192.00
2023-03-21T07:35:27.363Z,16512.00
2023-03-21T07:36:27.345Z,16736.00
2023-03-21T07:37:27.359Z,17120.00
2023-03-21T07:38:27.330Z,16864.00
2023-03-21T07:39:27.309Z,17088.00
2023-03-21T07:40:27.301Z,18688.00
2023-03-21T07:41:27.284Z,19072.00
2023-03-21T07:42:27.286Z,19424.00
2023-03-21T07:43:27.255Z,19680.00
2023-03-21T07:44:27.249Z,20064.00
2023-03-21T07:45:27.294Z,19872.00
2023-03-21T07:46:27.282Z,21408.00
2023-03-21T07:47:27.207Z,22784.00
2023-03-21T07:48:27.228Z,23776.00
2023-03-21T07:49:27.231Z,24480.00
2023-03-21T07:50:27.319Z,24576.00
2023-03-21T07:51:27.151Z,25728.00
2023-03-21T07:52:27.133Z,26368.00
2023-03-21T07:53:27.122Z,23168.00
2023-03-21T07:54:27.258Z,23552.00
2023-03-21T07:55:27.143Z,24608.00
2023-03-21T07:56:27.102Z,23872.00
2023-03-21T07:57:27.080Z,25216.00
2023-03-21T07:58:27.059Z,20832.00
2023-03-21T07:59:27.048Z,16352.00
2023-03-21T08:00:27.328Z,12688.00
2023-03-21T08:01:27.117Z,11784.00
2023-03-21T08:02:27.157Z,15936.00
2023-03-21T08:03:27.010Z,18304.00
2023-03-21T08:04:27.007Z,14592.00
2023-03-21T08:05:26.972Z,13596.00
2023-03-21T08:06:26.952Z,12548.00
2023-03-21T08:07:26.947Z,12668.00
2023-03-21T08:08:26.942Z,14168.00
2023-03-21T08:09:26.924Z,14436.00
2023-03-21T08:10:26.908Z,12692.00
2023-03-21T08:11:26.946Z,11908.00
2023-03-21T08:12:26.874Z,11076.00
2023-03-21T08:13:26.861Z,11132.00
2023-03-21T08:14:26.853Z,11700.00
2023-03-21T08:15:26.878Z,10892.00
2023-03-21T08:16:26.909Z,11552.00
2023-03-21T08:17:26.807Z,12404.00
2023-03-21T08:18:26.798Z,11116.00
2023-03-21T08:19:26.792Z,10336.00
2023-03-21T08:20:26.809Z,10060.00
2023-03-21T08:21:26.761Z,9772.00
2023-03-21T08:22:26.739Z,9628.00
2023-03-21T08:23:26.729Z,9732.00
2023-03-21T08:24:26.721Z,11060.00
2023-03-21T08:25:26.728Z,14132.00
2023-03-21T08:26:26.717Z,13868.00
2023-03-21T08:27:26.681Z,19264.00
2023-03-21T08:28:26.758Z,22944.00
2023-03-21T08:29:26.748Z,24000.00
2023-03-21T08:30:26.912Z,27136.00
2023-03-21T08:31:26.793Z,36128.00
2023-03-21T08:32:26.657Z,37312.00
2023-03-21T08:33:26.599Z,38336.00
2023-03-21T08:34:26.588Z,37024.00
2023-03-21T08:35:26.767Z,39232.00
2023-03-21T08:36:26.613Z,37952.00
2023-03-21T08:37:26.549Z,37568.00
2023-03-21T08:38:26.538Z,36512.00
2023-03-21T08:39:26.803Z,26528.00
2023-03-21T08:40:26.564Z,23808.00
2023-03-21T08:41:26.488Z,17536.00
2023-03-21T08:42:26.484Z,24256.00
2023-03-21T08:43:26.463Z,30080.00
2023-03-21T08:44:26.447Z,33984.00
2023-03-21T08:45:26.442Z,36768.00
2023-03-21T08:46:26.467Z,39136.00
2023-03-21T08:47:26.416Z,40928.00
2023-03-21T08:48:26.476Z,43136.00
2023-03-21T08:49:26.388Z,41440.00
2023-03-21T08:50:26.381Z,41216.00
2023-03-21T08:51:26.371Z,40704.00
2023-03-21T08:52:26.382Z,40768.00
2023-03-21T08:53:26.336Z,42688.00
2023-03-21T08:54:26.335Z,42432.00
2023-03-21T08:55:26.314Z,43296.00
2023-03-21T08:56:26.300Z,45056.00
2023-03-21T08:57:26.285Z,45312.00
2023-03-21T08:58:26.273Z,46336.00
2023-03-21T08:59:26.255Z,45472.00
2023-03-21T09:00:26.321Z,45760.00
2023-03-21T09:01:26.361Z,46304.00
2023-03-21T09:02:26.232Z,45280.00
2023-03-21T09:03:26.210Z,44704.00
2023-03-21T09:04:26.288Z,44512.00
2023-03-21T09:05:26.176Z,45216.00
2023-03-21T09:06:26.167Z,30848.00
2023-03-21T09:07:26.156Z,45728.00
2023-03-21T09:08:26.169Z,44992.00
2023-03-21T09:09:26.126Z,46208.00
2023-03-21T09:10:26.176Z,46816.00
2023-03-21T09:11:26.103Z,45952.00
2023-03-21T09:12:26.113Z,47296.00
2023-03-21T09:13:26.081Z,47584.00
2023-03-21T09:14:28.890Z,46592.00
2023-03-21T09:15:26.060Z,48512.00
2023-03-21T09:16:26.111Z,47616.00
2023-03-21T09:17:26.032Z,45792.00
2023-03-21T09:18:26.017Z,46048.00
2023-03-21T09:19:26.022Z,44384.00
2023-03-21T09:20:26.359Z,42368.00
2023-03-21T09:21:25.990Z,41664.00
2023-03-21T09:22:25.972Z,38176.00
2023-03-21T09:23:25.949Z,37664.00
2023-03-21T09:24:25.966Z,36352.00
2023-03-21T09:25:25.932Z,24544.00
2023-03-21T09:26:25.927Z,31520.00
2023-03-21T09:27:25.905Z,30080.00
2023-03-21T09:28:25.894Z,34144.00
2023-03-21T09:29:25.887Z,38368.00
2023-03-21T09:30:26.582Z,38240.00
2023-03-21T09:31:25.911Z,39072.00
2023-03-21T09:32:26.041Z,40000.00
2023-03-21T09:33:25.881Z,41536.00
2023-03-21T09:34:25.820Z,42144.00
2023-03-21T09:35:25.804Z,44192.00
2023-03-21T09:36:25.809Z,44416.00
2023-03-21T09:37:25.795Z,36192.00
2023-03-21T09:38:25.774Z,29312.00
2023-03-21T09:39:25.754Z,38432.00
2023-03-21T09:40:25.762Z,39712.00
2023-03-21T09:41:25.755Z,34784.00
2023-03-21T09:42:25.722Z,30048.00
2023-03-21T09:43:25.705Z,41504.00
2023-03-21T09:44:25.707Z,28608.00
2023-03-21T09:45:25.685Z,22432.00
2023-03-21T09:46:25.871Z,21120.00
2023-03-21T09:47:25.649Z,20288.00
2023-03-21T09:48:25.669Z,19616.00
2023-03-21T09:49:25.770Z,18560.00
2023-03-21T09:50:25.618Z,17728.00
2023-03-21T09:51:25.600Z,17152.00
2023-03-21T09:52:25.591Z,16896.00
2023-03-21T09:53:25.585Z,17856.00
2023-03-21T09:54:25.622Z,19584.00
2023-03-21T09:55:25.557Z,21856.00
2023-03-21T09:56:25.568Z,22336.00
2023-03-21T09:57:25.528Z,22592.00
2023-03-21T09:58:25.529Z,22592.00
2023-03-21T09:59:25.500Z,22976.00
2023-03-21T10:00:25.492Z,23008.00
2023-03-21T10:01:25.501Z,18464.00
2023-03-21T10:02:25.466Z,19392.00
2023-03-21T10:03:25.454Z,20768.00
2023-03-21T10:04:25.506Z,18368.00
2023-03-21T10:05:25.439Z,21088.00
2023-03-21T10:06:25.425Z,22496.00
2023-03-21T10:07:25.400Z,22656.00
2023-03-21T10:08:25.399Z,21312.00
2023-03-21T10:09:25.376Z,19840.00
2023-03-21T10:10:25.365Z,19616.00
2023-03-21T10:11:25.354Z,20224.00
2023-03-21T10:12:25.355Z,21344.00
2023-03-21T10:13:25.471Z,23008.00
2023-03-21T10:14:25.314Z,27008.00
2023-03-21T10:15:25.309Z,29696.00
2023-03-21T10:16:25.330Z,21824.00
2023-03-21T10:17:25.277Z,26464.00
2023-03-21T10:18:25.265Z,28352.00
2023-03-21T10:19:25.248Z,31616.00
2023-03-21T10:20:25.238Z,27136.00
2023-03-21T10:21:51.420Z,27648.00
2023-03-21T10:22:26.234Z,26752.00
2023-03-21T10:23:25.196Z,25952.00
2023-03-21T10:24:25.192Z,25312.00
2023-03-21T10:25:25.175Z,23136.00
2023-03-21T10:26:25.157Z,25440.00
2023-03-21T10:27:25.147Z,31872.00
2023-03-21T10:28:25.165Z,30336.00
2023-03-21T10:29:25.197Z,30048.00
2023-03-21T10:30:25.121Z,29088.00
2023-03-21T10:31:25.189Z,30592.00
2023-03-21T10:32:25.085Z,31456.00
2023-03-21T10:33:25.072Z,31488.00
2023-03-21T10:34:25.059Z,29792.00
2023-03-21T10:35:25.038Z,28448.00
2023-03-21T10:36:25.026Z,24544.00
2023-03-21T10:37:25.015Z,22176.00
2023-03-21T10:38:25.001Z,21344.00
2023-03-21T10:39:24.986Z,20256.00
2023-03-21T10:40:24.981Z,19776.00
2023-03-21T10:41:24.977Z,20608.00
2023-03-21T10:42:24.949Z,21696.00
2023-03-21T10:43:24.949Z,22080.00
2023-03-21T10:44:24.953Z,21568.00
2023-03-21T10:45:24.925Z,20384.00
2023-03-21T10:46:25.007Z,20096.00
2023-03-21T10:47:25.178Z,19776.00
2023-03-21T10:48:25.064Z,19776.00
2023-03-21T10:49:24.869Z,20736.00
2023-03-21T10:52:03.947Z,20256.00
2023-03-21T10:52:57.303Z,20096.00
2023-03-21T10:53:57.288Z,20000.00
2023-03-21T10:54:57.277Z,18880.00
2023-03-21T10:55:57.258Z,18400.00
2023-03-21T10:56:57.247Z,18240.00
2023-03-21T10:57:57.240Z,17728.00
2023-03-21T10:58:57.220Z,17152.00
2023-03-21T10:59:57.227Z,16736.00
2023-03-21T11:00:57.333Z,16672.00
2023-03-21T11:01:57.249Z,16704.00
2023-03-21T11:02:57.165Z,16512.00
2023-03-21T11:03:57.154Z,16192.00
2023-03-21T11:04:57.144Z,16000.00
2023-03-21T11:05:57.128Z,15936.00
2023-03-21T11:06:57.119Z,15872.00
2023-03-21T11:07:57.098Z,15808.00
2023-03-21T11:08:57.086Z,15648.00
2023-03-21T11:09:57.072Z,15648.00
2023-03-21T11:10:57.059Z,15616.00
2023-03-21T11:11:57.054Z,15616.00
2023-03-21T11:12:57.045Z,15616.00
2023-03-21T11:13:57.029Z,15680.00
2023-03-21T11:14:57.017Z,15712.00
2023-03-21T11:15:57.024Z,15808.00
2023-03-21T11:16:57.045Z,15840.00
2023-03-21T11:17:56.975Z,15808.00
2023-03-21T11:18:57.020Z,15744.00
2023-03-21T11:19:57.145Z,15552.00
2023-03-21T11:20:56.960Z,15488.00
2023-03-21T11:21:56.921Z,15280.00
2023-03-21T11:22:56.931Z,15488.00
2023-03-21T11:23:57.270Z,15584.00
2023-03-21T11:24:56.883Z,15616.00
2023-03-21T11:25:56.871Z,15712.00
2023-03-21T11:26:56.854Z,15808.00
2023-03-21T11:27:56.853Z,15840.00
2023-03-21T11:28:56.835Z,16000.00
2023-03-21T11:29:56.821Z,16160.00
2023-03-21T11:30:56.890Z,16608.00
2023-03-21T11:31:56.821Z,16480.00
2023-03-21T11:32:56.786Z,16192.00
2023-03-21T11:33:56.779Z,16192.00
2023-03-21T11:34:56.759Z,16288.00
2023-03-21T11:35:56.802Z,16384.00
2023-03-21T11:36:56.731Z,16480.00
2023-03-21T11:37:56.734Z,16320.00
2023-03-21T11:38:56.715Z,16128.00
2023-03-21T11:39:56.697Z,15968.00
2023-03-21T11:40:56.692Z,15488.00
2023-03-21T11:41:56.668Z,15424.00
2023-03-21T11:42:56.702Z,15228.00
2023-03-21T11:43:56.639Z,15024.00
2023-03-21T11:44:56.628Z,14808.00
2023-03-21T11:45:56.667Z,14656.00
2023-03-21T11:46:56.650Z,14536.00
2023-03-21T11:47:56.842Z,14444.00
2023-03-21T11:48:56.672Z,14356.00
2023-03-21T11:50:04.607Z,14316.00
2023-03-21T11:50:57.570Z,14264.00
2023-03-21T11:51:56.535Z,14228.00
2023-03-21T11:52:56.721Z,14160.00
2023-03-21T11:53:56.613Z,14112.00
2023-03-21T11:54:56.651Z,14140.00
2023-03-21T11:55:56.559Z,14152.00
2023-03-21T11:56:56.467Z,14020.00
2023-03-21T11:58:00.168Z,13960.00
2023-03-21T11:58:56.815Z,13968.00
2023-03-21T11:59:56.631Z,14048.00
2023-03-21T12:00:56.718Z,14200.00
2023-03-21T12:01:56.397Z,14440.00
2023-03-21T12:02:56.694Z,14796.00
2023-03-21T12:03:56.799Z,15488.00
2023-03-21T12:04:56.409Z,16064.00
2023-03-21T12:05:56.340Z,16608.00
2023-03-21T12:06:56.366Z,17216.00
2023-03-21T12:07:56.325Z,17504.00
2023-03-21T12:08:56.306Z,17888.00
2023-03-21T12:09:56.296Z,17792.00
2023-03-21T12:10:56.282Z,18560.00
2023-03-21T12:11:56.290Z,19360.00
2023-03-21T12:12:56.249Z,20000.00
2023-03-21T12:13:56.237Z,19360.00
2023-03-21T12:14:56.225Z,18624.00
2023-03-21T12:15:56.307Z,17984.00
2023-03-21T12:16:56.202Z,17248.00
2023-03-21T12:17:56.192Z,16672.00
2023-03-21T12:18:56.189Z,16224.00
2023-03-21T12:19:56.197Z,15776.00
2023-03-21T12:20:56.146Z,15248.00
2023-03-21T12:21:56.542Z,14792.00
2023-03-21T12:22:56.161Z,14504.00
2023-03-21T12:23:56.106Z,14128.00
2023-03-21T12:24:56.095Z,13840.00
2023-03-21T12:25:56.073Z,13552.00
2023-03-21T12:26:57.541Z,13408.00